Op dit moment wordt er hard gewerkt aan deze versie van Weerstation-Wijk.nl
Het kan zijn dat er dingen nog niet helemaal kloppen of goed werken.

Weerstation-Wijk.nl. Voor het weer van Wijk bij Duurstede en omstreken



Webcam Weerstation-Wijk Meer informatie Webcam Weerstation-Wijk


Bezoek ook deze websites:

Template documentation
and downloads

And another site



METAR rapporten vliegvelden

   
EHVK - Volkel Rnlafb, Netherlands
Afstand tot: ZW 18 km
Gewijzigd: Oct 27 2020 3:55 am
Licht bewolkt  
Licht bewolkt  
   Wind: ZZW 16.7 km/h
Wind: ZZW 16.7 km/h
Temperatuur: 8°C
Voelt als: 5°C
Dauwpunt: 7°C
Vochtigheid: 93%
Barometer: 1002 hPa
Bewolking: Licht bewolkt
Zicht: meer dan 10 km
Bewolking: Licht bewolkt 5600 ft
EHVK 270255Z AUTO 20009KT 9999 FEW056 08/07 Q1002 BLU
EDLV - Niederrhein, Germany
Afstand tot: ZO 25 km
Gewijzigd: Oct 26 2020 11:50 pm
Verouderd
Gedeeltelijk bewolkt  
Gedeeltelijk bewolkt  
   Wind: ZZW 22.2 km/h
Wind: ZZW 22.2 km/h
Temperatuur: 11°C
Dauwpunt: 7°C
Vochtigheid: 77%
Barometer: 1002 hPa
Bewolking: Gedeeltelijk bewolkt
Zicht: meer dan 10 km
Bewolking: Gedeeltelijk bewolkt 2800 ft
EDLV 262250Z 21012KT 9999 SCT028 11/07 Q1002
EHDL - Deelen Rnlafb, Netherlands
Afstand tot: N 35 km
Gewijzigd: Oct 27 2020 3:55 am
Bewolking  
Bewolking  
   Wind: ZZW 18.5 km/h
Wind: ZZW 18.5 km/h
Temperatuur: 9°C
Voelt als: 6°C
Dauwpunt: 8°C
Vochtigheid: 94%
Barometer: 1002 hPa
Bewolking: Bewolking
Zicht: meer dan 10 km
Bewolking: Licht bewolkt 800 ft,
Grotendeels bewolkt 1000 ft,
Bewolking 5400 ft
EHDL 270255Z AUTO 21010KT 130V250 9999 FEW008 BKN010 OVC054 09/08 Q1002 GRN
EHEH - Eindhoven Rnlafb, Netherlands
Afstand tot: ZW 48 km
Gewijzigd: Oct 27 2020 3:55 am
Helder  
Helder  
   Wind: Zuiden 14.8 km/h
Wind: Zuiden 14.8 km/h
Temperatuur: 8°C
Voelt als: 6°C
Dauwpunt: 7°C
Vochtigheid: 93%
Barometer: 1002 hPa
Bewolking: Helder
Zicht: meer dan 10 km
Bewolking: Helder
EHEH 270255Z AUTO 19008KT 9999 NCD 08/07 Q1002 BLU
EHGR - Gilze-Rijen Rnla, Netherlands
Afstand tot: WZW 70 km
Gewijzigd: Oct 27 2020 3:55 am
Licht bewolkt  
Licht bewolkt  
   Wind: ZZW 14.8 km/h
Wind: ZZW 14.8 km/h
Temperatuur: 8°C
Voelt als: 6°C
Dauwpunt: 7°C
Vochtigheid: 93%
Barometer: 1002 hPa
Bewolking: Licht bewolkt
Zicht: meer dan 10 km
Bewolking: Licht bewolkt 2700 ft
EHGR 270255Z AUTO 20008KT 150V240 9999 FEW027 08/07 Q1002 BLU
EBBL - Kleine-Brogel(Ba, Belgium
Afstand tot: ZZW 71 km
Gewijzigd: Oct 27 2020 3:55 am
Licht bewolkt  
Licht bewolkt  
   Wind: ZZW 14.8 km/h
Wind: ZZW 14.8 km/h
Temperatuur: 8°C
Voelt als: 6°C
Dauwpunt: 7°C
Vochtigheid: 93%
Barometer: 1003 hPa
Bewolking: Licht bewolkt
Zicht: meer dan 10 km
Bewolking: Licht bewolkt 3200 ft
EBBL 270255Z AUTO 21008KT 9999 FEW032/// 08/07 Q1003 BLU

Script ontwikkeld door  Saratoga-weather.org Aangepast voor de template door  Weerstation Leuven

U vindt ons ook hier:

UK Metoffice

WeatherCloud

AWEKAS

Apparatuur in gebruik:

Weerstation
Davis VP2

Weerprogramma
Weather Display

Webleverancier
WebReus.nl

Davis VP2

Weather Display

WebReus.nl


Weerstation-Wijk.nl. Voor het weer van Wijk bij Duurstede en omstreken